createdAt,value
2016-05-19T08:33:02.264Z,-34.2
2016-05-19T08:33:12.264Z,-34.2
2016-05-19T08:33:22.264Z,-34.2
2016-05-19T08:33:49.438Z,-34.2
2016-05-19T08:34:12.266Z,-34.2
2016-05-19T08:34:15.454Z,-34.2
2016-05-19T08:34:25.407Z,-34.2
2016-05-19T08:34:35.407Z,-34.2
2016-05-19T08:34:45.426Z,-34.2
2016-05-19T08:34:55.442Z,-34.2
2016-05-19T08:35:05.442Z,-34.2
2016-05-19T08:35:15.442Z,-34.2
2016-05-19T08:35:25.458Z,-34.2
2016-05-19T08:35:35.458Z,-34.2
2016-05-19T08:35:45.475Z,-34.2
2016-05-19T08:35:55.475Z,-34.2
2016-05-19T08:36:05.491Z,-34.2
2016-05-19T08:36:15.491Z,-34.2
2016-05-19T08:36:25.507Z,-34.2
2016-05-19T08:36:35.507Z,-34.2
2016-05-19T08:36:45.525Z,-34.2
2016-05-19T08:36:55.525Z,-34.2
2016-05-19T08:37:05.541Z,-34.2
2016-05-19T08:37:15.541Z,-34.2
2016-05-19T08:37:25.556Z,-34.2
2016-05-19T08:37:35.556Z,-34.2
2016-05-19T08:37:45.574Z,-34.2
2016-05-19T08:37:55.574Z,-34.2
2016-05-19T08:38:05.590Z,-34.2
2016-05-19T08:38:15.652Z,-34.2
2016-05-19T08:38:25.605Z,-34.2
2016-05-19T08:38:35.605Z,-34.2
2016-05-19T08:38:45.624Z,-34.2
2016-05-19T08:39:01.796Z,-34.2
2016-05-19T08:39:11.796Z,-34.2
2016-05-19T08:39:21.811Z,-34.2
2016-05-19T08:39:49.220Z,-34.2
2016-05-19T08:39:59.235Z,-34.2
2016-05-19T08:40:09.235Z,-34.2
2016-05-19T08:49:01.478Z,-38.4
2016-05-19T08:49:12.103Z,-38.4
2016-05-19T08:49:22.869Z,-38.4
2016-05-19T08:49:33.666Z,-38.4
2016-05-19T08:49:44.137Z,-38.4
2016-05-19T08:49:54.778Z,-38.4
2016-05-19T08:50:05.247Z,-38.4
2016-05-19T08:50:15.887Z,-38.4
2016-05-19T08:50:26.512Z,-38.4
2016-05-19T08:50:36.981Z,-38.4
2016-05-19T08:51:06.156Z,-38.4
2016-05-19T08:51:16.781Z,-38.4
2016-05-19T08:51:27.406Z,-38.4
2016-05-19T08:51:38.062Z,-38.4
2016-05-19T08:51:48.221Z,-38.4
2016-05-19T08:51:58.706Z,-38.4
2016-05-19T08:52:09.378Z,-38.4
2016-05-19T08:52:20.003Z,-38.4
2016-05-19T08:52:30.628Z,-38.4
2016-05-19T08:52:41.255Z,-38.4
2016-05-19T08:52:51.880Z,-38.4
2016-05-19T08:53:02.505Z,-38.4
2016-05-19T08:53:13.645Z,-38.4
2016-05-19T08:53:23.989Z,-38.4
2016-05-19T08:53:35.239Z,-38.4
2016-05-19T08:53:45.445Z,-38.4
2016-05-19T08:53:56.805Z,-38.4
2016-05-19T08:54:07.617Z,-38.4
2016-05-19T08:54:18.820Z,-38.4
2016-05-19T08:54:29.461Z,-38.4
2016-05-19T08:54:40.104Z,-38.4
2016-05-19T08:54:50.479Z,-38.4
2016-05-19T08:55:00.808Z,-38.4
2016-05-19T08:55:11.401Z,-38.4
2016-05-19T09:07:00.480Z,-38.2
2016-05-19T09:18:46.934Z,26.3
2016-05-19T09:18:57.700Z,26.3
2016-05-19T09:19:10.528Z,26.2
2016-05-19T09:22:35.614Z,26.3
2016-05-19T09:22:46.133Z,26.3
2016-05-19T09:22:56.758Z,26.3
2016-05-19T09:23:07.523Z,26.2
2016-05-19T09:23:18.476Z,26.2
2016-05-19T09:23:29.117Z,26.3
2016-05-19T09:23:39.351Z,26.2
2016-05-19T09:23:51.464Z,26.3
2016-05-19T09:24:03.432Z,26.2
2016-05-19T09:24:14.479Z,26.2
2016-05-19T09:24:25.120Z,26.2
2016-05-19T09:24:36.354Z,26.1
2016-05-19T09:24:49.982Z,26.1
2016-05-19T09:25:00.404Z,26
2016-05-19T09:25:11.029Z,26
2016-05-19T09:25:21.639Z,26
2016-05-19T09:25:32.420Z,25.9
2016-05-19T09:32:31.783Z,25.8
2016-05-19T09:32:42.613Z,25.7
2016-05-19T09:32:53.238Z,25.6
2016-05-19T09:33:33.206Z,25.3
2016-05-19T09:34:12.272Z,25.3
2016-05-19T09:35:09.243Z,25.3
2016-05-19T09:35:19.711Z,25.1
2016-05-19T09:35:30.352Z,25.1
2016-05-19T09:35:40.980Z,25.1
2016-05-19T09:35:51.652Z,25.1
2016-05-19T09:36:02.402Z,25.1
2016-05-19T09:36:13.230Z,25.2
2016-05-19T09:36:24.636Z,25.2
2016-05-19T09:36:35.277Z,25.1
2016-05-19T09:36:45.810Z,25.2
2016-05-19T09:36:56.138Z,25.2
2016-05-19T09:37:09.779Z,25.1
2016-05-19T09:37:20.420Z,25.2
2016-05-19T09:37:31.045Z,25.1
2016-05-19T09:37:41.674Z,25.2
2016-05-19T09:37:52.299Z,25.1
2016-05-19T09:38:02.783Z,25.2
2016-05-19T09:38:13.408Z,25.1
2016-05-19T09:38:24.174Z,25.2
2016-05-19T09:38:35.111Z,25.3
2016-05-19T09:38:48.286Z,25.2
2016-05-19T09:38:58.317Z,25.2
2016-05-19T09:39:09.552Z,25.2
2016-05-19T09:39:20.567Z,25.2
2016-05-19T09:39:31.114Z,25.2
2016-05-19T09:39:41.788Z,25.2
2016-05-19T09:39:52.413Z,25.2
2016-05-19T09:40:02.882Z,25.2
2016-05-19T09:40:13.819Z,25.2
2016-05-19T09:40:24.444Z,25.2
2016-05-19T09:40:34.913Z,25.2
2016-05-19T09:40:45.572Z,25.2
2016-05-19T09:40:56.260Z,25.2
2016-05-19T09:41:06.838Z,25.2
2016-05-19T09:41:17.463Z,25.3
2016-05-19T09:41:28.088Z,25.2
2016-05-19T09:41:53.230Z,25.2
2016-05-19T09:42:05.855Z,25.2
2016-05-19T10:01:31.391Z,25.6
2016-05-19T10:01:42.063Z,25.6
2016-05-19T10:02:15.503Z,25.4
2016-05-19T10:02:26.128Z,25.5
2016-05-19T10:03:08.131Z,25.2
2016-05-19T10:03:18.959Z,25.3
2016-05-19T10:03:29.584Z,25.2
2016-05-19T10:03:40.069Z,25.2
2016-05-19T10:03:50.681Z,25.2
2016-05-19T10:04:01.322Z,25.2
2016-05-19T10:04:12.119Z,25.1
2016-05-19T10:04:22.884Z,25.1
2016-05-19T10:04:33.728Z,25.2
2016-05-19T10:04:44.417Z,25.1
2016-05-19T10:04:55.042Z,25.2
2016-05-19T10:05:05.808Z,25.2
2016-05-19T10:05:16.621Z,25.1
2016-05-19T10:05:27.449Z,25.2
2016-05-19T10:05:38.074Z,25.2
2016-05-19T10:05:49.077Z,25.2
2016-05-19T10:05:59.702Z,25.1
2016-05-19T10:06:10.233Z,25.1
2016-05-19T10:06:20.920Z,25.1
2016-05-19T10:06:31.561Z,25.2
2016-05-19T10:06:42.045Z,25.2
2016-05-19T10:06:52.533Z,25.1
2016-05-19T10:07:03.158Z,25.1
2016-05-19T10:07:13.783Z,24.9
2016-05-19T10:07:24.423Z,25
2016-05-19T10:07:35.048Z,25
2016-05-19T10:07:45.723Z,25
2016-05-19T10:07:56.333Z,25
2016-05-19T10:08:06.958Z,25
2016-05-19T10:08:17.630Z,24.9
2016-05-19T10:08:28.098Z,25.1
2016-05-19T10:08:39.020Z,25.1
2016-05-19T10:08:50.100Z,25.2
2016-05-19T10:09:01.616Z,25.2
2016-05-19T10:09:12.100Z,25.2
2016-05-19T10:09:22.444Z,25.2
2016-05-19T10:09:33.085Z,25.2
2016-05-19T10:09:43.850Z,25.3
2016-05-19T10:09:54.385Z,25.2
2016-05-19T10:10:05.166Z,25.2
2016-05-19T10:10:15.838Z,25.3
2016-05-19T10:10:26.478Z,25.3
2016-05-19T10:10:37.119Z,25.3
2016-05-19T10:10:47.746Z,25.2
2016-05-19T10:10:58.433Z,25.3
2016-05-19T10:11:09.043Z,25.3
2016-05-19T10:11:19.371Z,25.2
2016-05-19T10:11:29.715Z,25.3
2016-05-19T10:11:40.355Z,25.3
2016-05-19T10:11:50.874Z,25.3
2016-05-19T10:12:01.468Z,25.4
2016-05-19T10:12:12.186Z,25.2
2016-05-19T10:12:22.499Z,25.2
2016-05-19T10:12:32.890Z,25.2
2016-05-19T10:12:43.140Z,25.2
2016-05-19T10:12:53.455Z,25.2
2016-05-19T10:13:03.643Z,25.2
2016-05-19T10:13:14.049Z,25.1
2016-05-19T10:13:24.377Z,25.1
2016-05-19T10:13:51.099Z,25.1
2016-05-19T10:14:01.739Z,25.1
2016-05-19T10:14:12.364Z,25.2
2016-05-19T10:14:22.989Z,25.1
2016-05-19T10:14:33.630Z,25.1
2016-05-19T10:14:44.413Z,25.1
2016-05-19T10:14:58.054Z,25.1
2016-05-19T10:15:08.694Z,25.2
2016-05-19T10:15:19.335Z,25.2
2016-05-19T10:15:29.960Z,25
2016-05-19T10:15:40.601Z,25.1
2016-05-19T10:15:51.260Z,25
2016-05-19T10:16:02.088Z,25.1
2016-05-19T10:16:12.776Z,25.1
2016-05-19T10:16:23.697Z,25.1
2016-05-19T10:16:34.432Z,25.1
2016-05-19T10:16:45.060Z,25.2
2016-05-19T10:16:55.544Z,25.1
2016-05-19T10:17:06.013Z,25.1
2016-05-19T10:17:16.654Z,25.2
2016-05-19T10:17:27.341Z,25.2
2016-05-19T10:17:38.107Z,25.2
2016-05-19T10:17:48.906Z,25.1
2016-05-19T10:17:59.687Z,25.1
2016-05-19T10:18:10.327Z,25.1
2016-05-19T10:18:21.171Z,25.1
2016-05-19T10:18:31.952Z,25
2016-05-19T10:18:42.484Z,25.1
2016-05-19T10:18:53.143Z,25.1
2016-05-19T10:19:03.487Z,25.1
2016-05-19T10:19:14.346Z,25.1
2016-05-19T10:19:24.971Z,25.1
2016-05-19T10:19:35.612Z,25.1
2016-05-19T10:19:46.255Z,25.1
2016-05-19T10:19:56.896Z,25.1
2016-05-19T10:20:08.537Z,25.2
2016-05-19T10:20:19.162Z,25.2
2016-05-19T10:20:31.708Z,25.1
2016-05-19T10:20:42.490Z,25.1
2016-05-19T10:20:53.133Z,25.1
2016-05-19T10:21:35.118Z,25
2016-05-19T10:21:45.963Z,25
2016-05-19T10:21:56.651Z,25
2016-05-19T10:22:07.292Z,25
2016-05-19T10:22:18.057Z,25
2016-05-19T10:22:28.760Z,25
2016-05-19T10:22:39.448Z,25
2016-05-19T10:22:49.951Z,25
2016-05-19T10:23:00.716Z,25
2016-05-19T10:23:11.357Z,25
2016-05-19T10:23:22.685Z,25.1
2016-05-19T10:23:33.810Z,25
2016-05-19T10:23:44.812Z,25.1
2016-05-19T10:23:56.406Z,25
2016-05-19T10:24:07.015Z,25.1
2016-05-19T10:24:17.703Z,25.1
2016-05-19T10:24:28.047Z,25.1
2016-05-19T10:24:38.672Z,25.1
2016-05-19T10:24:49.362Z,25
2016-05-19T10:24:59.987Z,25
2016-05-19T10:25:10.800Z,25
2016-05-19T10:25:21.737Z,25
2016-05-19T10:25:32.393Z,25
2016-05-19T10:25:43.018Z,25
2016-05-19T10:25:53.646Z,25
2016-05-19T10:26:04.303Z,25
2016-05-19T10:26:14.771Z,25
2016-05-19T10:26:25.584Z,25
2016-05-19T10:26:36.209Z,25
2016-05-19T10:26:46.852Z,25.1
2016-05-19T10:26:57.493Z,25.1
2016-05-19T10:27:08.134Z,25
2016-05-19T10:27:18.977Z,25
2016-05-19T10:27:29.681Z,25
2016-05-19T10:27:40.321Z,25
2016-05-19T10:27:50.948Z,25.1
2016-05-19T10:28:01.604Z,25
2016-05-19T10:28:11.995Z,25.1
2016-05-19T10:28:22.683Z,25.1
2016-05-19T10:28:33.323Z,25
2016-05-19T10:28:44.120Z,25
2016-05-19T10:28:54.748Z,25
2016-05-19T10:29:05.217Z,25
2016-05-19T10:29:15.842Z,25
2016-05-19T10:29:26.467Z,25
2016-05-19T10:29:37.123Z,25
2016-05-19T10:29:48.064Z,25
2016-05-19T10:29:58.673Z,25
2016-05-19T10:30:09.157Z,25.1
2016-05-19T10:30:19.798Z,25
2016-05-19T10:30:30.423Z,25
2016-05-19T10:30:41.064Z,25
2016-05-19T10:30:51.722Z,25
2016-05-19T10:31:02.394Z,25
2016-05-19T10:31:13.019Z,25
2016-05-19T10:31:23.644Z,25
2016-05-19T10:31:34.144Z,25
2016-05-19T10:31:44.990Z,25.2
2016-05-19T10:31:55.725Z,25
2016-05-19T10:32:06.381Z,25.1
2016-05-19T10:32:17.100Z,25.1
2016-05-19T10:32:27.709Z,25
2016-05-19T10:32:38.350Z,25
2016-05-19T10:32:48.978Z,25
2016-05-19T10:32:59.775Z,25
2016-05-19T10:33:10.259Z,25
2016-05-19T10:33:20.931Z,25
2016-05-19T10:33:31.572Z,25.1
2016-05-19T13:48:08.053Z,20.9
2016-05-19T13:48:25.366Z,20.7
2016-05-19T13:48:46.272Z,20.6
2016-05-19T13:49:03.244Z,20.6
2016-05-19T13:49:20.525Z,20.5
2016-05-19T13:49:37.853Z,20.6
2016-05-19T13:49:55.121Z,20.4
2016-05-19T13:50:12.277Z,20.5
2016-05-19T13:50:29.527Z,20.4
2016-05-19T13:50:46.636Z,20.4
2016-05-19T13:51:03.780Z,20.4
2016-05-19T13:51:21.077Z,20.3
2016-05-19T13:51:38.389Z,20.2
2016-05-19T13:51:55.674Z,20.3
2016-05-19T13:52:12.877Z,20.2
2016-05-19T13:52:30.142Z,20.1
2016-05-19T13:52:47.408Z,20.1
2016-05-19T13:53:04.676Z,20
2016-05-19T13:53:21.660Z,20
2016-05-19T13:53:43.363Z,20
2016-05-19T13:54:00.225Z,19.9
2016-05-19T13:54:17.679Z,20
2016-05-19T13:54:36.944Z,20
2016-05-19T13:54:55.041Z,20
2016-05-19T13:55:12.338Z,19.9
2016-05-19T13:55:29.619Z,20
2016-05-19T13:55:46.963Z,20
2016-05-19T13:56:04.184Z,20
2016-05-19T13:56:21.387Z,20
2016-05-19T13:56:38.668Z,20
2016-05-19T13:56:55.937Z,20
2016-05-19T13:57:13.108Z,19.9
2016-05-19T13:57:30.483Z,19.9
2016-05-19T13:57:47.593Z,19.9
2016-05-19T13:58:04.580Z,19.8
2016-05-19T13:58:21.893Z,19.9
2016-05-19T13:58:39.174Z,19.8
2016-05-19T13:58:56.317Z,19.9
2016-05-19T13:59:13.426Z,19.9
2016-05-19T13:59:30.567Z,20
2016-05-19T13:59:47.817Z,19.8
2016-05-19T14:00:04.991Z,19.8
2016-05-19T14:00:22.226Z,19.9
2016-05-19T14:00:39.570Z,19.9
2016-05-19T14:00:56.681Z,20
2016-05-19T14:01:13.962Z,20
2016-05-19T14:01:31.275Z,20.1
2016-05-19T14:01:48.587Z,20
2016-05-19T14:02:05.888Z,20
2016-05-19T14:02:23.138Z,20.1
2016-05-19T14:02:40.201Z,20
2016-05-19T14:02:57.312Z,20
2016-05-19T14:03:14.578Z,20
2016-05-19T14:03:35.078Z,20
2016-05-19T14:03:52.187Z,19.9
2016-05-19T14:04:09.331Z,20
2016-05-19T14:04:26.471Z,19.9
2016-05-19T14:04:43.596Z,20
2016-05-19T14:05:01.177Z,20
2016-05-19T14:05:18.521Z,19.9
2016-05-19T14:05:35.474Z,20
2016-05-19T14:05:52.615Z,20
2016-05-19T14:06:09.648Z,19.9
2016-05-19T14:06:26.945Z,19.9
2016-05-19T14:06:44.226Z,19.9
2016-05-19T14:07:01.557Z,19.9
2016-05-19T14:07:18.667Z,20
2016-05-19T14:07:35.729Z,19.8
2016-05-19T14:07:52.823Z,20
2016-05-19T14:08:10.137Z,20
2016-05-19T14:08:31.919Z,19.9
2016-05-19T14:08:48.981Z,19.9
2016-05-19T14:09:06.297Z,19.8
2016-05-19T14:09:23.859Z,19.9
2016-05-19T14:09:41.547Z,19.8
2016-05-19T14:09:58.738Z,19.8
2016-05-19T14:10:15.707Z,19.8
2016-05-19T14:10:32.941Z,20
2016-05-19T14:10:50.082Z,20
2016-05-19T14:11:07.381Z,19.9
2016-05-19T14:11:24.365Z,19.9
2016-05-19T14:11:41.162Z,20
2016-05-19T14:11:57.961Z,20
2016-05-19T14:12:15.117Z,20
2016-05-19T14:12:32.086Z,20.1
2016-05-19T14:12:49.414Z,20
2016-05-19T14:13:06.059Z,20
2016-05-19T14:13:23.496Z,20
2016-05-19T14:13:41.996Z,20
2016-05-19T14:13:59.295Z,20
2016-05-19T14:14:16.545Z,20.1
2016-05-19T14:14:33.264Z,20
2016-05-19T14:14:50.373Z,20
2016-05-19T14:15:07.281Z,20
2016-05-19T14:15:24.469Z,20
2016-05-19T14:15:41.125Z,20
2016-05-19T14:15:58.020Z,20
2016-05-19T14:16:14.723Z,20
2016-05-19T14:16:32.457Z,20
2016-05-19T14:16:49.598Z,20
2016-05-19T14:17:06.709Z,20
2016-05-19T14:17:23.850Z,20
2016-05-19T14:17:40.897Z,20
2016-05-19T14:17:57.837Z,20
2016-05-19T14:18:14.900Z,20
2016-05-19T14:18:35.619Z,20
2016-05-19T14:18:52.822Z,20
2016-05-19T14:19:10.136Z,20
2016-05-19T14:19:27.386Z,20
2016-05-19T14:19:44.574Z,19.9
2016-05-19T14:20:01.905Z,20
2016-05-19T14:20:19.217Z,20
2016-05-19T14:20:36.545Z,20
2016-05-19T14:20:53.827Z,20
2016-05-19T14:21:11.392Z,20
2016-05-19T14:21:28.642Z,20
2016-05-19T14:21:45.798Z,20
2016-05-19T14:22:02.911Z,20.1
2016-05-19T14:22:19.989Z,20.1
2016-05-19T14:22:37.005Z,20.1
2016-05-19T14:22:54.192Z,20
2016-05-19T14:23:11.241Z,20
2016-05-19T14:23:31.788Z,20.1
2016-05-19T14:23:49.319Z,20.1
2016-05-19T14:24:07.635Z,20.1
2016-05-19T14:24:26.791Z,20.1
2016-05-19T14:24:44.228Z,20.1
2016-05-19T14:25:01.074Z,20.2
2016-05-19T14:25:18.230Z,20.1
2016-05-19T14:25:35.340Z,20.1
2016-05-19T14:25:52.152Z,20
2016-05-19T14:26:09.421Z,20.1
2016-05-19T14:26:26.452Z,19.9
2016-05-19T14:26:43.624Z,19.9
2016-05-19T14:27:00.736Z,20.1
2016-05-19T14:27:17.877Z,20
2016-05-19T14:27:35.143Z,20
2016-05-19T14:27:52.408Z,19.9
2016-05-19T14:28:09.754Z,20
2016-05-19T14:28:27.051Z,20
2016-05-19T14:28:48.410Z,20
2016-05-19T14:29:05.382Z,20.1
2016-05-19T14:29:22.601Z,20.1
2016-05-19T14:29:39.929Z,20.1
2016-05-19T14:29:56.947Z,20
2016-05-19T14:30:14.026Z,20.1
2016-05-19T14:30:31.182Z,20
2016-05-19T14:30:48.791Z,20.1
2016-05-19T14:31:06.122Z,20.1
2016-05-19T14:31:23.513Z,20.1
2016-05-19T14:31:40.622Z,20.1
2016-05-19T14:31:57.859Z,20.1
2016-05-19T14:32:15.156Z,20.2
2016-05-19T14:32:32.452Z,20.2
2016-05-19T14:32:49.531Z,20.3
2016-05-19T14:33:06.674Z,20.3
2016-05-19T14:33:23.737Z,20.3
2016-05-19T14:33:46.409Z,20.4
2016-05-19T14:34:08.270Z,20.4
2016-05-19T14:34:25.504Z,20.4
2016-05-19T14:34:44.926Z,20.3
2016-05-19T14:35:02.257Z,20.4
2016-05-19T14:35:19.367Z,20.4
2016-05-19T14:35:36.460Z,20.2
2016-05-19T14:35:53.570Z,20.3
2016-05-19T14:36:10.792Z,20.3
2016-05-19T14:36:28.073Z,20.3
2016-05-19T14:36:45.260Z,20.4
2016-05-19T14:37:02.529Z,20.4
2016-05-19T14:37:19.623Z,20.4
2016-05-19T14:37:36.732Z,20.4
2016-05-19T14:37:54.045Z,20.4
2016-05-19T14:38:11.203Z,20.4
2016-05-19T14:38:32.875Z,20.4
2016-05-19T14:38:50.906Z,20.4
2016-05-19T14:39:08.003Z,20.4
2016-05-19T14:39:25.206Z,20.4
2016-05-19T14:39:44.550Z,20.4
2016-05-19T14:40:02.239Z,20.4
2016-05-19T14:40:19.567Z,20.4
2016-05-19T14:40:36.723Z,20.5
2016-05-19T14:40:53.723Z,20.5
2016-05-19T14:41:10.759Z,20.4
2016-05-19T14:41:27.899Z,20.4
2016-05-19T14:41:45.118Z,20.4
2016-05-19T14:42:02.386Z,20.4
2016-05-19T14:42:19.558Z,20.5
2016-05-19T14:42:36.479Z,20.4
2016-05-19T14:42:53.636Z,20.4
2016-05-19T14:43:10.826Z,20.4
2016-05-19T14:43:33.092Z,20.4
2016-05-19T14:43:50.436Z,20.4
2016-05-19T14:44:07.767Z,20.4
2016-05-19T14:44:25.064Z,20.3
2016-05-19T14:44:42.376Z,20.4
2016-05-19T14:44:59.722Z,20.2
2016-05-19T14:45:17.050Z,20.3
2016-05-19T14:45:34.300Z,20.4
2016-05-19T14:45:51.394Z,20.3
2016-05-19T14:46:08.662Z,20.4
2016-05-19T14:46:25.772Z,20.4
2016-05-19T14:46:42.709Z,20.4
2016-05-19T14:46:59.868Z,20.4
2016-05-19T14:47:17.134Z,20.5
2016-05-19T14:47:34.431Z,20.5
2016-05-19T14:47:51.697Z,20.5
2016-05-19T14:48:08.981Z,20.6
2016-05-19T14:48:26.262Z,20.5
2016-05-19T14:48:48.059Z,20.4
2016-05-19T14:49:05.202Z,20.5
2016-05-19T14:49:22.467Z,20.4
2016-05-19T14:49:39.405Z,20.4
2016-05-19T14:49:56.532Z,20.4
2016-05-19T14:50:13.829Z,20.4
2016-05-19T14:50:30.844Z,20.4
2016-05-19T14:50:48.172Z,20.3
2016-05-19T14:51:05.472Z,20.4
2016-05-19T14:51:22.628Z,20.4
2016-05-19T14:51:39.925Z,20.3
2016-05-19T14:51:57.241Z,20.3
2016-05-19T14:52:14.538Z,20.3
2016-05-19T14:52:31.663Z,20.3
2016-05-19T14:52:48.663Z,20.3
2016-05-19T14:53:05.728Z,20.4
2016-05-19T14:53:23.103Z,20.2
2016-05-19T14:53:45.416Z,20.2
2016-05-19T14:54:02.996Z,20.3
2016-05-19T14:54:20.121Z,20.2
2016-05-19T14:54:38.011Z,20.1
2016-05-19T14:54:55.246Z,20.1
2016-05-19T14:55:12.483Z,20.1
2016-05-19T14:55:29.952Z,20.2
2016-05-19T14:55:47.093Z,20.2
2016-05-19T14:56:04.330Z,20.1
2016-05-19T14:56:21.580Z,20.1
2016-05-19T14:56:38.689Z,20.2
2016-05-19T14:56:54.642Z,20.1
2016-05-19T14:57:11.599Z,20.1
2016-05-19T14:57:28.849Z,20
2016-05-19T14:57:45.708Z,20
2016-05-19T14:58:03.116Z,19.9
2016-05-19T14:58:20.335Z,20
2016-05-19T14:58:42.726Z,20
2016-05-19T14:58:59.900Z,20
2016-05-19T14:59:17.213Z,19.9
2016-05-19T14:59:34.385Z,20
2016-05-19T14:59:51.510Z,20
2016-05-19T15:00:08.496Z,20
2016-05-19T15:00:25.793Z,20
2016-05-19T15:00:43.043Z,20
2016-05-19T15:01:00.015Z,20
2016-05-19T15:01:17.093Z,20
2016-05-19T15:01:32.984Z,20
2016-05-19T15:01:50.234Z,19.8
2016-05-19T15:02:07.330Z,19.9
2016-05-19T15:02:24.455Z,20
2016-05-19T15:02:41.580Z,20
2016-05-19T15:02:58.693Z,20
2016-05-19T15:03:15.880Z,19.9
2016-05-19T15:03:37.865Z,20
2016-05-19T15:03:55.083Z,20
2016-05-19T15:04:12.086Z,19.8
2016-05-19T15:04:29.477Z,19.9
2016-05-19T15:04:47.071Z,19.8
2016-05-19T15:05:04.245Z,19.8
2016-05-19T15:05:21.541Z,19.8
2016-05-19T15:05:38.713Z,19.7
2016-05-19T15:05:56.090Z,19.7
2016-05-19T15:06:13.278Z,19.7
2016-05-19T15:06:30.559Z,19.8
2016-05-19T15:06:47.840Z,19.7
2016-05-19T15:07:05.078Z,19.8
2016-05-19T15:07:22.000Z,19.6
2016-05-19T15:07:39.171Z,19.7
2016-05-19T15:07:56.299Z,19.7
2016-05-19T15:08:13.268Z,19.9
2016-05-19T15:08:33.487Z,19.8
2016-05-19T15:08:50.596Z,19.7
2016-05-19T15:09:08.677Z,19.8
2016-05-19T15:09:26.740Z,19.7
2016-05-19T15:09:43.771Z,19.9
2016-05-19T15:10:01.039Z,19.8
2016-05-19T15:10:18.273Z,19.9
2016-05-19T15:10:35.539Z,19.7
2016-05-19T15:10:52.726Z,19.8
2016-05-19T15:11:08.667Z,19.8
2016-05-19T15:11:25.948Z,19.7
2016-05-19T15:11:43.182Z,19.6
2016-05-19T15:12:00.451Z,19.6
2016-05-19T15:12:17.576Z,19.6
2016-05-19T15:12:34.842Z,19.6
2016-05-19T15:12:52.092Z,19.7
2016-05-19T15:13:09.406Z,19.6
2016-05-19T15:13:28.547Z,19.6
2016-05-19T15:13:45.562Z,19.6
2016-05-19T15:14:02.862Z,19.7
2016-05-19T15:14:20.019Z,19.8
2016-05-19T15:14:37.237Z,19.6
2016-05-19T15:14:54.503Z,19.7
2016-05-19T15:15:11.771Z,19.6
2016-05-19T15:15:29.005Z,19.5
2016-05-19T15:15:46.161Z,19.5
2016-05-19T15:16:03.275Z,19.6
2016-05-19T15:16:20.478Z,19.6
2016-05-19T15:16:37.743Z,19.5
2016-05-19T15:16:55.056Z,19.5
2016-05-19T15:17:12.340Z,19.6
2016-05-19T15:17:29.621Z,19.6
2016-05-19T15:17:47.153Z,19.7
2016-05-19T15:18:04.295Z,19.7
2016-05-19T15:18:21.561Z,19.6
2016-05-19T15:18:41.983Z,19.7
2016-05-19T15:18:59.111Z,19.7
2016-05-19T15:19:16.126Z,19.7
2016-05-19T15:19:33.392Z,19.7
2016-05-19T15:19:50.673Z,19.7
2016-05-19T15:20:07.738Z,19.7
2016-05-19T15:20:25.019Z,19.8
2016-05-19T15:20:42.331Z,19.7
2016-05-19T15:20:59.678Z,19.7
2016-05-19T15:21:16.913Z,19.7
2016-05-19T15:21:34.006Z,19.6
2016-05-19T15:21:51.116Z,19.6
2016-05-19T15:22:08.384Z,19.7
2016-05-19T15:22:25.603Z,19.7
2016-05-19T15:22:42.853Z,19.7
2016-05-19T15:23:00.011Z,19.7
2016-05-19T15:23:17.183Z,19.6
2016-05-19T15:23:37.574Z,19.7
2016-05-19T15:23:55.199Z,19.8
2016-05-19T15:24:12.780Z,19.6
2016-05-19T15:24:30.608Z,19.6
2016-05-19T15:24:48.124Z,19.6
2016-05-19T15:25:05.439Z,19.7
2016-05-19T15:25:22.720Z,19.7
2016-05-19T15:25:40.080Z,19.6
2016-05-19T15:25:57.161Z,19.7
2016-05-19T15:26:14.286Z,19.6
2016-05-19T15:26:31.536Z,19.7
2016-05-19T15:26:48.817Z,19.7
2016-05-19T15:27:05.772Z,19.6
2016-05-19T15:27:23.007Z,19.7
2016-05-19T15:27:40.272Z,19.8
2016-05-19T15:27:57.635Z,19.7
2016-05-19T15:28:14.885Z,19.7
2016-05-19T15:28:33.963Z,19.7
2016-05-19T15:28:51.057Z,19.8
2016-05-19T15:29:08.340Z,19.6
2016-05-19T15:29:25.637Z,19.7
2016-05-19T15:29:42.793Z,19.6
2016-05-19T15:30:00.124Z,19.6
2016-05-19T15:30:17.249Z,19.6
2016-05-19T15:30:34.515Z,19.6
2016-05-19T15:30:51.858Z,19.6
2016-05-19T15:31:09.111Z,19.6
2016-05-19T15:31:26.221Z,19.6
2016-05-19T15:31:43.690Z,19.6
2016-05-19T15:32:00.926Z,19.6
2016-05-19T15:32:18.176Z,19.6
2016-05-19T15:32:35.426Z,19.5
2016-05-19T15:32:52.692Z,19.6
2016-05-19T15:33:10.241Z,19.6
2016-05-19T15:33:29.726Z,19.7
2016-05-19T15:33:47.038Z,19.6
2016-05-19T15:34:04.323Z,19.7
2016-05-19T15:34:21.619Z,19.7
2016-05-19T15:34:38.760Z,19.6
2016-05-19T15:34:56.119Z,19.6
2016-05-19T15:35:13.247Z,19.7
2016-05-19T15:35:30.497Z,19.7
2016-05-19T15:35:47.919Z,19.7
2016-05-19T15:36:05.171Z,19.7
2016-05-19T15:36:22.484Z,19.6
2016-05-19T15:36:40.046Z,19.6
2016-05-19T15:36:57.332Z,19.6
2016-05-19T15:37:14.628Z,19.6
2016-05-19T15:37:31.785Z,19.6
2016-05-19T15:37:48.941Z,19.6
2016-05-19T15:38:06.083Z,19.6
2016-05-19T15:38:23.333Z,19.6
2016-05-19T15:38:40.223Z,19.6
2016-05-19T15:38:57.695Z,19.6
2016-05-19T15:39:15.179Z,19.6
2016-05-19T15:39:34.211Z,19.7
2016-05-19T15:39:51.554Z,19.6
2016-05-19T15:40:08.792Z,19.8
2016-05-19T15:40:26.026Z,19.7
2016-05-19T15:40:43.589Z,19.8
2016-05-19T15:41:00.842Z,19.7
2016-05-19T15:41:17.920Z,19.6
2016-05-19T15:41:35.185Z,19.6
2016-05-19T15:41:52.623Z,19.7
2016-05-19T15:42:09.704Z,19.8
2016-05-19T15:42:26.845Z,19.6
2016-05-19T15:42:43.970Z,19.6
2016-05-19T15:43:01.222Z,19.6
2016-05-19T15:43:18.222Z,19.7
2016-05-19T15:43:38.440Z,19.7
2016-05-19T15:43:55.800Z,19.6
2016-05-19T15:44:12.739Z,19.6
2016-05-19T15:44:29.833Z,19.6
2016-05-19T15:44:47.099Z,19.6
2016-05-19T15:45:04.384Z,19.7
2016-05-19T15:45:21.618Z,19.6
2016-05-19T15:45:38.884Z,19.7
2016-05-19T15:45:56.165Z,19.6
2016-05-19T15:46:13.512Z,19.7
2016-05-19T15:46:30.762Z,19.7
2016-05-19T15:46:48.012Z,19.5
2016-05-19T15:47:05.154Z,19.5
2016-05-19T15:47:22.389Z,19.6
2016-05-19T15:47:39.623Z,19.5
2016-05-19T15:47:56.904Z,19.6
2016-05-19T15:48:14.204Z,19.7
2016-05-19T15:48:34.267Z,19.8
2016-05-19T15:48:51.829Z,19.8
2016-05-19T15:49:08.972Z,19.7
2016-05-19T15:49:26.081Z,19.8
2016-05-19T15:49:43.347Z,19.9
2016-05-19T15:50:00.725Z,19.8
2016-05-19T15:50:18.287Z,19.7
2016-05-19T15:50:35.600Z,19.7
2016-05-19T15:50:52.944Z,19.7
2016-05-19T15:51:10.259Z,19.7
2016-05-19T15:51:27.369Z,19.7
2016-05-19T15:51:44.665Z,19.8
2016-05-19T15:52:01.855Z,19.7
2016-05-19T15:52:19.105Z,19.7
2016-05-19T15:52:36.230Z,19.8
2016-05-19T15:52:53.496Z,19.6
2016-05-19T15:53:10.795Z,19.5
2016-05-19T15:53:28.092Z,19.6
2016-05-19T15:53:47.811Z,19.7
2016-05-19T15:54:05.392Z,19.7
2016-05-19T15:54:23.158Z,19.8
2016-05-19T15:54:40.423Z,19.8
2016-05-19T15:54:59.457Z,19.7
2016-05-19T15:55:16.582Z,19.8
2016-05-19T15:55:33.988Z,19.8
2016-05-19T15:55:51.347Z,19.8
2016-05-19T15:56:08.725Z,19.8
2016-05-19T15:56:25.991Z,19.8
2016-05-19T15:56:43.257Z,19.8
2016-05-19T15:57:00.525Z,19.8
2016-05-19T15:57:17.744Z,19.8
2016-05-19T15:57:35.072Z,19.8
2016-05-19T15:57:52.306Z,19.8
2016-05-19T15:58:09.887Z,19.8
2016-05-19T15:58:30.715Z,19.8
2016-05-19T15:58:47.808Z,19.8
2016-05-19T15:59:05.140Z,19.9
2016-05-19T15:59:22.374Z,19.9
2016-05-19T15:59:39.718Z,19.8
2016-05-19T15:59:57.030Z,19.8
2016-05-19T16:00:14.330Z,19.8
2016-05-19T16:00:31.627Z,19.9
2016-05-19T16:00:49.189Z,19.8
2016-05-19T16:01:06.505Z,19.9
2016-05-19T16:01:23.833Z,19.8
2016-05-19T16:01:40.942Z,19.8
2016-05-19T16:01:58.194Z,19.9
2016-05-19T16:02:15.523Z,19.8
2016-05-19T16:02:32.741Z,19.8
2016-05-19T16:02:50.007Z,19.8
2016-05-19T16:03:07.088Z,19.8
2016-05-19T16:03:24.197Z,19.7
2016-05-19T16:03:44.307Z,19.8
2016-05-19T16:04:01.607Z,19.7
2016-05-19T16:04:18.700Z,19.8
2016-05-19T16:04:36.060Z,19.8
2016-05-19T16:04:53.435Z,19.8
2016-05-19T16:05:10.687Z,19.8
2016-05-19T16:05:27.999Z,19.7
2016-05-19T16:05:45.124Z,19.7
2016-05-19T16:06:02.409Z,19.7
2016-05-19T16:06:19.471Z,19.7
2016-05-19T16:06:37.049Z,19.8
2016-05-19T16:06:54.284Z,19.8
2016-05-19T16:07:11.552Z,19.8
2016-05-19T16:07:28.818Z,19.9
2016-05-19T16:07:46.177Z,19.8
2016-05-19T16:08:03.476Z,19.9
2016-05-19T16:08:20.726Z,19.9
2016-05-19T16:08:40.320Z,19.9
2016-05-19T16:08:57.960Z,19.9
2016-05-19T16:09:16.745Z,20
2016-05-19T16:09:33.901Z,19.9
2016-05-19T16:09:51.135Z,19.8
2016-05-19T16:10:08.450Z,19.8
2016-05-19T16:10:25.590Z,19.9
2016-05-19T16:10:42.840Z,19.7
2016-05-19T16:11:00.078Z,19.7
2016-05-19T16:11:17.375Z,19.9
2016-05-19T16:11:34.281Z,19.9
2016-05-19T16:11:51.562Z,19.8
2016-05-19T16:12:08.893Z,19.9
2016-05-19T16:12:26.190Z,19.9
2016-05-19T16:12:43.487Z,19.8
2016-05-19T16:13:00.771Z,19.8